sensor_id;sensor_type;location;lat;lon;timestamp;P1;durP1;ratioP1;P2;durP2;ratioP2
5295;SDS011;2670;42.720;23.336;2023-05-28T00:00:45;14.07;;;7.30;;
5295;SDS011;2670;42.720;23.336;2023-05-28T00:03:11;10.20;;;6.73;;
5295;SDS011;2670;42.720;23.336;2023-05-28T00:05:43;9.33;;;7.43;;
5295;SDS011;2670;42.720;23.336;2023-05-28T00:08:10;11.03;;;6.43;;
5295;SDS011;2670;42.720;23.336;2023-05-28T00:10:39;8.53;;;6.47;;
5295;SDS011;2670;42.720;23.336;2023-05-28T00:13:05;9.40;;;6.90;;
5295;SDS011;2670;42.720;23.336;2023-05-28T00:15:32;12.40;;;6.23;;
5295;SDS011;2670;42.720;23.336;2023-05-28T00:18:00;9.47;;;7.10;;
5295;SDS011;2670;42.720;23.336;2023-05-28T00:20:26;11.53;;;5.63;;
5295;SDS011;2670;42.720;23.336;2023-05-28T00:22:55;9.50;;;6.87;;
5295;SDS011;2670;42.720;23.336;2023-05-28T00:25:22;8.93;;;6.70;;
5295;SDS011;2670;42.720;23.336;2023-05-28T00:27:49;5.90;;;5.20;;
5295;SDS011;2670;42.720;23.336;2023-05-28T00:30:15;7.20;;;6.27;;
5295;SDS011;2670;42.720;23.336;2023-05-28T00:32:42;6.93;;;5.53;;
5295;SDS011;2670;42.720;23.336;2023-05-28T00:35:09;10.63;;;6.03;;
5295;SDS011;2670;42.720;23.336;2023-05-28T00:37:35;8.47;;;6.57;;
5295;SDS011;2670;42.720;23.336;2023-05-28T00:40:04;14.70;;;6.80;;
5295;SDS011;2670;42.720;23.336;2023-05-28T00:42:31;11.50;;;6.17;;
5295;SDS011;2670;42.720;23.336;2023-05-28T00:44:58;6.27;;;4.53;;
5295;SDS011;2670;42.720;23.336;2023-05-28T00:47:25;5.73;;;5.00;;
5295;SDS011;2670;42.720;23.336;2023-05-28T00:49:52;9.57;;;5.17;;
5295;SDS011;2670;42.720;23.336;2023-05-28T00:52:20;6.47;;;5.20;;
5295;SDS011;2670;42.720;23.336;2023-05-28T00:54:47;8.27;;;5.23;;
5295;SDS011;2670;42.720;23.336;2023-05-28T00:57:16;6.77;;;5.13;;
5295;SDS011;2670;42.720;23.336;2023-05-28T00:59:46;6.90;;;6.03;;
5295;SDS011;2670;42.720;23.336;2023-05-28T01:02:13;7.93;;;5.30;;
5295;SDS011;2670;42.720;23.336;2023-05-28T01:04:40;8.20;;;5.30;;
5295;SDS011;2670;42.720;23.336;2023-05-28T01:07:06;10.20;;;5.97;;
5295;SDS011;2670;42.720;23.336;2023-05-28T01:09:33;7.10;;;5.60;;
5295;SDS011;2670;42.720;23.336;2023-05-28T01:12:00;7.93;;;5.40;;
5295;SDS011;2670;42.720;23.336;2023-05-28T01:14:29;9.80;;;6.03;;
5295;SDS011;2670;42.720;23.336;2023-05-28T01:16:56;6.90;;;5.67;;
5295;SDS011;2670;42.720;23.336;2023-05-28T01:19:23;6.60;;;5.37;;
5295;SDS011;2670;42.720;23.336;2023-05-28T01:21:55;6.40;;;4.77;;
5295;SDS011;2670;42.720;23.336;2023-05-28T01:24:25;10.87;;;6.27;;
5295;SDS011;2670;42.720;23.336;2023-05-28T01:26:54;5.13;;;4.57;;
5295;SDS011;2670;42.720;23.336;2023-05-28T01:29:21;6.00;;;5.10;;
5295;SDS011;2670;42.720;23.336;2023-05-28T01:31:48;7.53;;;4.67;;
5295;SDS011;2670;42.720;23.336;2023-05-28T01:34:15;5.80;;;4.90;;
5295;SDS011;2670;42.720;23.336;2023-05-28T01:36:43;7.43;;;5.20;;
5295;SDS011;2670;42.720;23.336;2023-05-28T01:39:12;6.90;;;5.63;;
5295;SDS011;2670;42.720;23.336;2023-05-28T01:41:43;6.43;;;5.13;;
5295;SDS011;2670;42.720;23.336;2023-05-28T01:44:12;8.60;;;5.00;;
5295;SDS011;2670;42.720;23.336;2023-05-28T01:46:40;8.13;;;4.73;;
5295;SDS011;2670;42.720;23.336;2023-05-28T01:49:08;7.07;;;5.53;;
5295;SDS011;2670;42.720;23.336;2023-05-28T01:51:36;6.60;;;5.33;;
5295;SDS011;2670;42.720;23.336;2023-05-28T01:54:03;7.17;;;5.57;;
5295;SDS011;2670;42.720;23.336;2023-05-28T01:56:30;7.37;;;5.07;;
5295;SDS011;2670;42.720;23.336;2023-05-28T01:58:58;5.87;;;5.23;;
5295;SDS011;2670;42.720;23.336;2023-05-28T02:01:27;8.20;;;5.67;;
5295;SDS011;2670;42.720;23.336;2023-05-28T02:03:54;7.67;;;5.67;;
5295;SDS011;2670;42.720;23.336;2023-05-28T02:06:21;6.60;;;5.97;;
5295;SDS011;2670;42.720;23.336;2023-05-28T02:08:48;7.57;;;5.77;;
5295;SDS011;2670;42.720;23.336;2023-05-28T02:11:16;17.90;;;6.30;;
5295;SDS011;2670;42.720;23.336;2023-05-28T02:13:42;5.70;;;4.90;;
5295;SDS011;2670;42.720;23.336;2023-05-28T02:16:10;7.67;;;5.70;;
5295;SDS011;2670;42.720;23.336;2023-05-28T02:18:42;15.97;;;6.87;;
5295;SDS011;2670;42.720;23.336;2023-05-28T02:21:09;9.67;;;6.33;;
5295;SDS011;2670;42.720;23.336;2023-05-28T02:23:37;8.60;;;6.80;;
5295;SDS011;2670;42.720;23.336;2023-05-28T02:26:04;7.47;;;5.97;;
5295;SDS011;2670;42.720;23.336;2023-05-28T02:28:31;7.07;;;6.20;;
5295;SDS011;2670;42.720;23.336;2023-05-28T02:30:57;6.77;;;5.67;;
5295;SDS011;2670;42.720;23.336;2023-05-28T02:33:26;6.80;;;5.40;;
5295;SDS011;2670;42.720;23.336;2023-05-28T02:35:53;8.37;;;5.83;;
5295;SDS011;2670;42.720;23.336;2023-05-28T02:38:20;5.93;;;5.30;;
5295;SDS011;2670;42.720;23.336;2023-05-28T02:40:46;6.93;;;5.37;;
5295;SDS011;2670;42.720;23.336;2023-05-28T02:43:13;21.67;;;5.80;;
5295;SDS011;2670;42.720;23.336;2023-05-28T02:45:40;9.97;;;5.10;;
5295;SDS011;2670;42.720;23.336;2023-05-28T02:48:07;8.90;;;5.83;;
5295;SDS011;2670;42.720;23.336;2023-05-28T02:50:35;8.37;;;5.67;;
5295;SDS011;2670;42.720;23.336;2023-05-28T02:53:01;8.60;;;5.60;;
5295;SDS011;2670;42.720;23.336;2023-05-28T02:55:29;6.70;;;5.17;;
5295;SDS011;2670;42.720;23.336;2023-05-28T02:57:55;11.97;;;5.43;;
5295;SDS011;2670;42.720;23.336;2023-05-28T03:00:22;8.03;;;5.43;;
5295;SDS011;2670;42.720;23.336;2023-05-28T03:02:49;6.90;;;5.07;;
5295;SDS011;2670;42.720;23.336;2023-05-28T03:05:16;6.90;;;4.87;;
5295;SDS011;2670;42.720;23.336;2023-05-28T03:07:44;10.90;;;5.90;;
5295;SDS011;2670;42.720;23.336;2023-05-28T03:10:11;10.93;;;6.10;;
5295;SDS011;2670;42.720;23.336;2023-05-28T03:12:37;10.60;;;6.50;;
5295;SDS011;2670;42.720;23.336;2023-05-28T03:15:04;7.50;;;6.30;;
5295;SDS011;2670;42.720;23.336;2023-05-28T03:17:32;7.90;;;6.00;;
5295;SDS011;2670;42.720;23.336;2023-05-28T03:19:59;7.47;;;5.70;;
5295;SDS011;2670;42.720;23.336;2023-05-28T03:22:26;12.30;;;5.87;;
5295;SDS011;2670;42.720;23.336;2023-05-28T03:24:54;12.20;;;5.87;;
5295;SDS011;2670;42.720;23.336;2023-05-28T03:27:22;6.97;;;5.73;;
5295;SDS011;2670;42.720;23.336;2023-05-28T03:29:48;7.70;;;5.63;;
5295;SDS011;2670;42.720;23.336;2023-05-28T03:32:15;8.17;;;6.10;;
5295;SDS011;2670;42.720;23.336;2023-05-28T03:34:42;7.57;;;5.73;;
5295;SDS011;2670;42.720;23.336;2023-05-28T03:37:09;7.90;;;6.47;;
5295;SDS011;2670;42.720;23.336;2023-05-28T03:39:35;9.53;;;6.53;;
5295;SDS011;2670;42.720;23.336;2023-05-28T03:42:04;9.20;;;6.10;;
5295;SDS011;2670;42.720;23.336;2023-05-28T03:44:32;11.50;;;6.80;;
5295;SDS011;2670;42.720;23.336;2023-05-28T03:46:59;8.23;;;6.30;;
5295;SDS011;2670;42.720;23.336;2023-05-28T03:49:26;8.70;;;5.53;;
5295;SDS011;2670;42.720;23.336;2023-05-28T03:51:53;8.83;;;6.60;;
5295;SDS011;2670;42.720;23.336;2023-05-28T03:54:19;7.27;;;5.57;;
5295;SDS011;2670;42.720;23.336;2023-05-28T03:56:46;14.40;;;6.30;;
5295;SDS011;2670;42.720;23.336;2023-05-28T03:59:14;12.20;;;5.73;;
5295;SDS011;2670;42.720;23.336;2023-05-28T04:01:41;5.97;;;5.37;;
5295;SDS011;2670;42.720;23.336;2023-05-28T04:04:07;10.40;;;6.23;;
5295;SDS011;2670;42.720;23.336;2023-05-28T04:06:34;6.70;;;5.80;;
5295;SDS011;2670;42.720;23.336;2023-05-28T04:09:01;9.47;;;5.33;;
5295;SDS011;2670;42.720;23.336;2023-05-28T04:11:28;7.80;;;5.57;;
5295;SDS011;2670;42.720;23.336;2023-05-28T04:13:55;10.80;;;5.70;;
5295;SDS011;2670;42.720;23.336;2023-05-28T04:16:23;9.00;;;5.43;;
5295;SDS011;2670;42.720;23.336;2023-05-28T04:18:50;7.70;;;5.50;;
5295;SDS011;2670;42.720;23.336;2023-05-28T04:21:17;7.67;;;6.40;;
5295;SDS011;2670;42.720;23.336;2023-05-28T04:23:44;8.37;;;6.33;;
5295;SDS011;2670;42.720;23.336;2023-05-28T04:26:11;10.80;;;6.80;;
5295;SDS011;2670;42.720;23.336;2023-05-28T04:28:38;8.27;;;6.17;;
5295;SDS011;2670;42.720;23.336;2023-05-28T04:31:06;9.07;;;6.30;;
5295;SDS011;2670;42.720;23.336;2023-05-28T04:33:34;7.60;;;6.50;;
5295;SDS011;2670;42.720;23.336;2023-05-28T04:36:01;9.07;;;6.10;;
5295;SDS011;2670;42.720;23.336;2023-05-28T04:38:28;8.70;;;5.93;;
5295;SDS011;2670;42.720;23.336;2023-05-28T04:40:56;9.83;;;6.80;;
5295;SDS011;2670;42.720;23.336;2023-05-28T04:43:25;9.10;;;6.50;;
5295;SDS011;2670;42.720;23.336;2023-05-28T04:45:51;9.93;;;6.70;;
5295;SDS011;2670;42.720;23.336;2023-05-28T04:48:19;7.30;;;5.90;;
5295;SDS011;2670;42.720;23.336;2023-05-28T04:50:47;8.77;;;6.93;;
5295;SDS011;2670;42.720;23.336;2023-05-28T04:53:15;8.27;;;6.40;;
5295;SDS011;2670;42.720;23.336;2023-05-28T04:55:42;9.00;;;6.63;;
5295;SDS011;2670;42.720;23.336;2023-05-28T04:58:10;10.83;;;6.43;;
5295;SDS011;2670;42.720;23.336;2023-05-28T05:00:37;9.63;;;6.00;;
5295;SDS011;2670;42.720;23.336;2023-05-28T05:03:03;7.03;;;6.10;;
5295;SDS011;2670;42.720;23.336;2023-05-28T05:05:30;11.13;;;6.10;;
5295;SDS011;2670;42.720;23.336;2023-05-28T05:07:58;12.70;;;7.13;;
5295;SDS011;2670;42.720;23.336;2023-05-28T05:10:25;7.23;;;5.83;;
5295;SDS011;2670;42.720;23.336;2023-05-28T05:12:51;9.27;;;6.17;;
5295;SDS011;2670;42.720;23.336;2023-05-28T05:15:18;11.10;;;6.67;;
5295;SDS011;2670;42.720;23.336;2023-05-28T05:17:45;8.97;;;7.10;;
5295;SDS011;2670;42.720;23.336;2023-05-28T05:20:12;15.33;;;7.33;;
5295;SDS011;2670;42.720;23.336;2023-05-28T05:22:39;10.87;;;7.60;;
5295;SDS011;2670;42.720;23.336;2023-05-28T05:25:07;8.33;;;7.07;;
5295;SDS011;2670;42.720;23.336;2023-05-28T05:27:34;9.70;;;7.50;;
5295;SDS011;2670;42.720;23.336;2023-05-28T05:30:01;13.83;;;8.10;;
5295;SDS011;2670;42.720;23.336;2023-05-28T05:32:28;8.27;;;6.73;;
5295;SDS011;2670;42.720;23.336;2023-05-28T05:34:55;11.63;;;7.50;;
5295;SDS011;2670;42.720;23.336;2023-05-28T05:37:22;14.93;;;8.30;;
5295;SDS011;2670;42.720;23.336;2023-05-28T05:39:49;13.97;;;7.70;;
5295;SDS011;2670;42.720;23.336;2023-05-28T05:42:17;11.47;;;7.53;;
5295;SDS011;2670;42.720;23.336;2023-05-28T05:44:43;12.63;;;7.80;;
5295;SDS011;2670;42.720;23.336;2023-05-28T05:47:10;17.77;;;7.27;;
5295;SDS011;2670;42.720;23.336;2023-05-28T05:49:37;14.93;;;8.33;;
5295;SDS011;2670;42.720;23.336;2023-05-28T05:52:04;10.43;;;6.97;;
5295;SDS011;2670;42.720;23.336;2023-05-28T05:54:31;10.43;;;6.73;;
5295;SDS011;2670;42.720;23.336;2023-05-28T05:56:58;10.83;;;6.87;;
5295;SDS011;2670;42.720;23.336;2023-05-28T05:59:28;11.57;;;6.90;;
5295;SDS011;2670;42.720;23.336;2023-05-28T06:01:55;9.23;;;6.60;;
5295;SDS011;2670;42.720;23.336;2023-05-28T06:04:23;8.90;;;6.93;;
5295;SDS011;2670;42.720;23.336;2023-05-28T06:06:50;7.53;;;6.00;;
5295;SDS011;2670;42.720;23.336;2023-05-28T06:09:17;14.90;;;6.13;;
5295;SDS011;2670;42.720;23.336;2023-05-28T06:11:44;12.30;;;7.07;;
5295;SDS011;2670;42.720;23.336;2023-05-28T06:14:11;9.33;;;6.27;;
5295;SDS011;2670;42.720;23.336;2023-05-28T06:16:39;7.90;;;6.80;;
5295;SDS011;2670;42.720;23.336;2023-05-28T06:19:05;13.33;;;6.70;;
5295;SDS011;2670;42.720;23.336;2023-05-28T06:21:32;7.97;;;6.73;;
5295;SDS011;2670;42.720;23.336;2023-05-28T06:23:59;10.97;;;6.80;;
5295;SDS011;2670;42.720;23.336;2023-05-28T06:26:26;8.50;;;6.73;;
5295;SDS011;2670;42.720;23.336;2023-05-28T06:28:54;11.23;;;6.77;;
5295;SDS011;2670;42.720;23.336;2023-05-28T06:31:20;9.83;;;6.60;;
5295;SDS011;2670;42.720;23.336;2023-05-28T06:33:49;17.30;;;8.23;;
5295;SDS011;2670;42.720;23.336;2023-05-28T06:36:16;12.03;;;8.53;;
5295;SDS011;2670;42.720;23.336;2023-05-28T06:38:43;13.60;;;8.53;;
5295;SDS011;2670;42.720;23.336;2023-05-28T06:41:09;11.73;;;8.57;;
5295;SDS011;2670;42.720;23.336;2023-05-28T06:43:37;12.27;;;8.53;;
5295;SDS011;2670;42.720;23.336;2023-05-28T06:46:04;13.13;;;9.03;;
5295;SDS011;2670;42.720;23.336;2023-05-28T06:48:31;13.20;;;9.10;;
5295;SDS011;2670;42.720;23.336;2023-05-28T06:50:59;23.50;;;11.80;;
5295;SDS011;2670;42.720;23.336;2023-05-28T06:53:26;17.73;;;11.77;;
5295;SDS011;2670;42.720;23.336;2023-05-28T06:55:52;14.60;;;10.00;;
5295;SDS011;2670;42.720;23.336;2023-05-28T06:58:19;15.93;;;10.33;;
5295;SDS011;2670;42.720;23.336;2023-05-28T07:00:46;13.80;;;9.67;;
5295;SDS011;2670;42.720;23.336;2023-05-28T07:03:12;13.80;;;10.43;;
5295;SDS011;2670;42.720;23.336;2023-05-28T07:05:39;19.50;;;10.03;;
5295;SDS011;2670;42.720;23.336;2023-05-28T07:08:07;13.93;;;9.53;;
5295;SDS011;2670;42.720;23.336;2023-05-28T07:10:34;12.23;;;8.83;;
5295;SDS011;2670;42.720;23.336;2023-05-28T07:13:01;20.40;;;10.37;;
5295;SDS011;2670;42.720;23.336;2023-05-28T07:15:28;10.23;;;8.00;;
5295;SDS011;2670;42.720;23.336;2023-05-28T07:17:54;12.80;;;6.67;;
5295;SDS011;2670;42.720;23.336;2023-05-28T07:20:21;6.90;;;6.17;;
5295;SDS011;2670;42.720;23.336;2023-05-28T07:22:48;7.90;;;6.57;;
5295;SDS011;2670;42.720;23.336;2023-05-28T07:25:16;8.37;;;5.40;;
5295;SDS011;2670;42.720;23.336;2023-05-28T07:27:43;11.20;;;5.70;;
5295;SDS011;2670;42.720;23.336;2023-05-28T07:30:10;6.53;;;5.60;;
5295;SDS011;2670;42.720;23.336;2023-05-28T07:32:37;9.10;;;6.33;;
5295;SDS011;2670;42.720;23.336;2023-05-28T07:35:04;7.87;;;5.03;;
5295;SDS011;2670;42.720;23.336;2023-05-28T07:37:31;5.27;;;4.30;;
5295;SDS011;2670;42.720;23.336;2023-05-28T07:39:58;5.00;;;3.70;;
5295;SDS011;2670;42.720;23.336;2023-05-28T07:42:26;4.97;;;3.67;;
5295;SDS011;2670;42.720;23.336;2023-05-28T07:44:53;4.67;;;4.07;;
5295;SDS011;2670;42.720;23.336;2023-05-28T07:47:20;5.57;;;3.80;;
5295;SDS011;2670;42.720;23.336;2023-05-28T07:49:46;5.37;;;3.43;;
5295;SDS011;2670;42.720;23.336;2023-05-28T07:52:13;5.00;;;4.00;;
5295;SDS011;2670;42.720;23.336;2023-05-28T07:54:40;4.90;;;3.30;;
5295;SDS011;2670;42.720;23.336;2023-05-28T07:57:06;5.70;;;4.00;;
5295;SDS011;2670;42.720;23.336;2023-05-28T07:59:35;6.93;;;3.70;;
5295;SDS011;2670;42.720;23.336;2023-05-28T08:02:02;4.13;;;3.03;;
5295;SDS011;2670;42.720;23.336;2023-05-28T08:04:29;4.30;;;3.57;;
5295;SDS011;2670;42.720;23.336;2023-05-28T08:06:56;5.73;;;3.57;;
5295;SDS011;2670;42.720;23.336;2023-05-28T08:09:22;9.87;;;3.70;;
5295;SDS011;2670;42.720;23.336;2023-05-28T08:11:49;7.23;;;3.37;;
5295;SDS011;2670;42.720;23.336;2023-05-28T08:14:16;6.03;;;3.73;;
5295;SDS011;2670;42.720;23.336;2023-05-28T08:16:44;4.83;;;3.60;;
5295;SDS011;2670;42.720;23.336;2023-05-28T08:19:11;5.30;;;3.60;;
5295;SDS011;2670;42.720;23.336;2023-05-28T08:21:38;4.77;;;3.40;;
5295;SDS011;2670;42.720;23.336;2023-05-28T08:24:05;5.20;;;3.50;;
5295;SDS011;2670;42.720;23.336;2023-05-28T08:26:31;4.87;;;3.00;;
5295;SDS011;2670;42.720;23.336;2023-05-28T08:28:58;6.10;;;2.83;;
5295;SDS011;2670;42.720;23.336;2023-05-28T08:31:25;3.10;;;2.70;;
5295;SDS011;2670;42.720;23.336;2023-05-28T08:33:53;2.93;;;2.63;;
5295;SDS011;2670;42.720;23.336;2023-05-28T08:36:20;2.30;;;1.90;;
5295;SDS011;2670;42.720;23.336;2023-05-28T08:38:46;3.40;;;2.63;;
5295;SDS011;2670;42.720;23.336;2023-05-28T08:41:13;3.93;;;3.03;;
5295;SDS011;2670;42.720;23.336;2023-05-28T08:43:40;9.47;;;2.60;;
5295;SDS011;2670;42.720;23.336;2023-05-28T08:46:07;3.50;;;2.60;;
5295;SDS011;2670;42.720;23.336;2023-05-28T08:48:34;4.70;;;3.10;;
5295;SDS011;2670;42.720;23.336;2023-05-28T08:51:03;2.77;;;2.53;;
5295;SDS011;2670;42.720;23.336;2023-05-28T08:53:32;3.67;;;2.97;;
5295;SDS011;2670;42.720;23.336;2023-05-28T08:56:05;5.27;;;4.00;;
5295;SDS011;2670;42.720;23.336;2023-05-28T08:58:34;4.63;;;2.87;;
5295;SDS011;2670;42.720;23.336;2023-05-28T09:01:03;3.73;;;2.60;;
5295;SDS011;2670;42.720;23.336;2023-05-28T09:03:32;2.70;;;2.23;;
5295;SDS011;2670;42.720;23.336;2023-05-28T09:05:59;2.97;;;2.30;;
5295;SDS011;2670;42.720;23.336;2023-05-28T09:08:28;5.17;;;2.70;;
5295;SDS011;2670;42.720;23.336;2023-05-28T09:10:55;7.93;;;3.47;;
5295;SDS011;2670;42.720;23.336;2023-05-28T09:13:22;6.47;;;4.03;;
5295;SDS011;2670;42.720;23.336;2023-05-28T09:15:50;6.20;;;4.17;;
5295;SDS011;2670;42.720;23.336;2023-05-28T09:18:18;9.60;;;4.40;;
5295;SDS011;2670;42.720;23.336;2023-05-28T09:20:45;7.70;;;4.33;;
5295;SDS011;2670;42.720;23.336;2023-05-28T09:23:15;5.27;;;4.23;;
5295;SDS011;2670;42.720;23.336;2023-05-28T09:25:44;6.47;;;3.73;;
5295;SDS011;2670;42.720;23.336;2023-05-28T09:28:11;4.37;;;3.60;;
5295;SDS011;2670;42.720;23.336;2023-05-28T09:30:39;5.60;;;4.03;;
5295;SDS011;2670;42.720;23.336;2023-05-28T09:33:06;6.57;;;4.23;;
5295;SDS011;2670;42.720;23.336;2023-05-28T09:35:34;6.90;;;3.90;;
5295;SDS011;2670;42.720;23.336;2023-05-28T09:38:02;8.00;;;4.23;;
5295;SDS011;2670;42.720;23.336;2023-05-28T09:40:29;6.13;;;3.60;;
5295;SDS011;2670;42.720;23.336;2023-05-28T09:42:58;4.50;;;3.30;;
5295;SDS011;2670;42.720;23.336;2023-05-28T09:45:25;5.47;;;4.33;;
5295;SDS011;2670;42.720;23.336;2023-05-28T09:47:53;7.73;;;3.60;;
5295;SDS011;2670;42.720;23.336;2023-05-28T09:50:19;6.33;;;3.83;;
5295;SDS011;2670;42.720;23.336;2023-05-28T09:52:46;5.43;;;3.40;;
5295;SDS011;2670;42.720;23.336;2023-05-28T09:55:14;5.20;;;3.60;;
5295;SDS011;2670;42.720;23.336;2023-05-28T09:57:44;6.00;;;3.70;;
5295;SDS011;2670;42.720;23.336;2023-05-28T10:00:17;8.77;;;3.43;;
5295;SDS011;2670;42.720;23.336;2023-05-28T10:02:50;7.20;;;3.73;;
5295;SDS011;2670;42.720;23.336;2023-05-28T10:05:24;4.60;;;3.53;;
5295;SDS011;2670;42.720;23.336;2023-05-28T10:07:54;5.27;;;3.73;;
5295;SDS011;2670;42.720;23.336;2023-05-28T10:10:22;6.03;;;3.47;;
5295;SDS011;2670;42.720;23.336;2023-05-28T10:12:50;6.77;;;3.73;;
5295;SDS011;2670;42.720;23.336;2023-05-28T10:15:19;5.03;;;3.53;;
5295;SDS011;2670;42.720;23.336;2023-05-28T10:17:47;6.70;;;3.50;;
5295;SDS011;2670;42.720;23.336;2023-05-28T10:20:14;5.30;;;3.43;;
5295;SDS011;2670;42.720;23.336;2023-05-28T10:22:41;4.17;;;3.13;;
5295;SDS011;2670;42.720;23.336;2023-05-28T10:25:08;4.10;;;3.43;;
5295;SDS011;2670;42.720;23.336;2023-05-28T10:27:36;5.97;;;3.40;;
5295;SDS011;2670;42.720;23.336;2023-05-28T10:30:09;4.57;;;3.27;;
5295;SDS011;2670;42.720;23.336;2023-05-28T10:32:39;7.40;;;3.70;;
5295;SDS011;2670;42.720;23.336;2023-05-28T10:35:09;4.90;;;3.23;;
5295;SDS011;2670;42.720;23.336;2023-05-28T10:37:37;4.20;;;3.50;;
5295;SDS011;2670;42.720;23.336;2023-05-28T10:40:06;5.10;;;4.10;;
5295;SDS011;2670;42.720;23.336;2023-05-28T10:42:38;4.83;;;4.27;;
5295;SDS011;2670;42.720;23.336;2023-05-28T10:45:06;5.10;;;4.13;;
5295;SDS011;2670;42.720;23.336;2023-05-28T10:47:35;6.90;;;4.73;;
5295;SDS011;2670;42.720;23.336;2023-05-28T10:50:11;6.10;;;4.33;;
5295;SDS011;2670;42.720;23.336;2023-05-28T10:52:39;5.23;;;4.07;;
5295;SDS011;2670;42.720;23.336;2023-05-28T10:55:07;7.30;;;4.73;;
5295;SDS011;2670;42.720;23.336;2023-05-28T10:57:41;6.73;;;4.83;;
5295;SDS011;2670;42.720;23.336;2023-05-28T11:00:10;7.30;;;4.60;;
5295;SDS011;2670;42.720;23.336;2023-05-28T11:02:39;6.30;;;4.67;;
5295;SDS011;2670;42.720;23.336;2023-05-28T11:05:08;6.37;;;5.40;;
5295;SDS011;2670;42.720;23.336;2023-05-28T11:07:37;5.90;;;5.20;;
5295;SDS011;2670;42.720;23.336;2023-05-28T11:10:05;9.00;;;6.30;;
5295;SDS011;2670;42.720;23.336;2023-05-28T11:12:35;5.77;;;5.17;;
5295;SDS011;2670;42.720;23.336;2023-05-28T11:15:03;6.57;;;4.83;;
5295;SDS011;2670;42.720;23.336;2023-05-28T11:17:35;6.07;;;5.27;;
5295;SDS011;2670;42.720;23.336;2023-05-28T11:20:02;8.13;;;6.03;;
5295;SDS011;2670;42.720;23.336;2023-05-28T11:22:32;7.47;;;5.80;;
5295;SDS011;2670;42.720;23.336;2023-05-28T11:25:06;10.93;;;6.83;;
5295;SDS011;2670;42.720;23.336;2023-05-28T11:27:35;11.10;;;7.07;;
5295;SDS011;2670;42.720;23.336;2023-05-28T11:30:02;6.83;;;6.13;;
5295;SDS011;2670;42.720;23.336;2023-05-28T11:32:33;7.40;;;6.00;;
5295;SDS011;2670;42.720;23.336;2023-05-28T11:35:00;8.87;;;6.67;;
5295;SDS011;2670;42.720;23.336;2023-05-28T11:37:29;13.53;;;6.43;;
5295;SDS011;2670;42.720;23.336;2023-05-28T11:39:57;8.57;;;6.07;;
5295;SDS011;2670;42.720;23.336;2023-05-28T11:42:27;7.43;;;5.60;;
5295;SDS011;2670;42.720;23.336;2023-05-28T11:44:54;9.00;;;6.63;;
5295;SDS011;2670;42.720;23.336;2023-05-28T11:47:21;8.00;;;6.37;;
5295;SDS011;2670;42.720;23.336;2023-05-28T11:49:49;7.00;;;6.30;;
5295;SDS011;2670;42.720;23.336;2023-05-28T11:52:17;8.90;;;7.27;;
5295;SDS011;2670;42.720;23.336;2023-05-28T11:54:45;8.33;;;7.30;;
5295;SDS011;2670;42.720;23.336;2023-05-28T11:57:19;8.43;;;6.47;;
5295;SDS011;2670;42.720;23.336;2023-05-28T11:59:54;9.17;;;6.10;;
5295;SDS011;2670;42.720;23.336;2023-05-28T12:02:22;9.60;;;6.50;;
5295;SDS011;2670;42.720;23.336;2023-05-28T12:04:53;9.77;;;6.40;;
5295;SDS011;2670;42.720;23.336;2023-05-28T12:07:21;9.23;;;7.20;;
5295;SDS011;2670;42.720;23.336;2023-05-28T12:09:48;11.53;;;6.20;;
5295;SDS011;2670;42.720;23.336;2023-05-28T12:12:14;9.23;;;6.30;;
5295;SDS011;2670;42.720;23.336;2023-05-28T12:14:44;9.00;;;6.60;;
5295;SDS011;2670;42.720;23.336;2023-05-28T12:17:13;11.47;;;6.00;;
5295;SDS011;2670;42.720;23.336;2023-05-28T12:19:40;6.73;;;5.63;;
5295;SDS011;2670;42.720;23.336;2023-05-28T12:22:12;13.80;;;6.27;;
5295;SDS011;2670;42.720;23.336;2023-05-28T12:24:46;7.20;;;5.70;;
5295;SDS011;2670;42.720;23.336;2023-05-28T12:27:14;7.37;;;5.90;;
5295;SDS011;2670;42.720;23.336;2023-05-28T12:29:41;6.83;;;6.00;;
5295;SDS011;2670;42.720;23.336;2023-05-28T12:32:09;8.10;;;5.20;;
5295;SDS011;2670;42.720;23.336;2023-05-28T12:34:37;6.40;;;5.40;;
5295;SDS011;2670;42.720;23.336;2023-05-28T12:37:04;6.50;;;5.53;;
5295;SDS011;2670;42.720;23.336;2023-05-28T12:39:31;7.30;;;5.87;;
5295;SDS011;2670;42.720;23.336;2023-05-28T12:42:01;8.60;;;6.67;;
5295;SDS011;2670;42.720;23.336;2023-05-28T12:44:27;13.50;;;6.40;;
5295;SDS011;2670;42.720;23.336;2023-05-28T12:46:54;9.47;;;6.00;;
5295;SDS011;2670;42.720;23.336;2023-05-28T12:49:21;7.67;;;6.33;;
5295;SDS011;2670;42.720;23.336;2023-05-28T12:51:49;6.50;;;5.40;;
5295;SDS011;2670;42.720;23.336;2023-05-28T12:54:15;9.17;;;6.13;;
5295;SDS011;2670;42.720;23.336;2023-05-28T12:56:42;9.93;;;5.90;;
5295;SDS011;2670;42.720;23.336;2023-05-28T12:59:09;7.67;;;5.73;;
5295;SDS011;2670;42.720;23.336;2023-05-28T13:01:46;7.00;;;6.30;;
5295;SDS011;2670;42.720;23.336;2023-05-28T13:04:13;7.00;;;6.30;;
5295;SDS011;2670;42.720;23.336;2023-05-28T13:06:39;6.20;;;5.60;;
5295;SDS011;2670;42.720;23.336;2023-05-28T13:09:08;12.07;;;6.87;;
5295;SDS011;2670;42.720;23.336;2023-05-28T13:11:37;6.50;;;5.60;;
5295;SDS011;2670;42.720;23.336;2023-05-28T13:14:04;6.10;;;5.50;;
5295;SDS011;2670;42.720;23.336;2023-05-28T13:16:30;5.70;;;5.10;;
5295;SDS011;2670;42.720;23.336;2023-05-28T13:18:57;6.27;;;5.63;;
5295;SDS011;2670;42.720;23.336;2023-05-28T13:21:26;9.97;;;5.87;;
5295;SDS011;2670;42.720;23.336;2023-05-28T13:23:53;9.10;;;6.20;;
5295;SDS011;2670;42.720;23.336;2023-05-28T13:26:22;7.87;;;7.07;;
5295;SDS011;2670;42.720;23.336;2023-05-28T13:28:48;6.80;;;5.83;;
5295;SDS011;2670;42.720;23.336;2023-05-28T13:31:15;6.13;;;5.53;;
5295;SDS011;2670;42.720;23.336;2023-05-28T13:33:42;8.30;;;6.40;;
5295;SDS011;2670;42.720;23.336;2023-05-28T13:36:08;10.57;;;7.20;;
5295;SDS011;2670;42.720;23.336;2023-05-28T13:38:35;7.50;;;6.77;;
5295;SDS011;2670;42.720;23.336;2023-05-28T13:41:02;8.63;;;7.47;;
5295;SDS011;2670;42.720;23.336;2023-05-28T13:43:30;11.77;;;6.90;;
5295;SDS011;2670;42.720;23.336;2023-05-28T13:45:57;8.67;;;6.53;;
5295;SDS011;2670;42.720;23.336;2023-05-28T13:48:24;7.87;;;7.07;;
5295;SDS011;2670;42.720;23.336;2023-05-28T13:50:51;8.40;;;7.53;;
5295;SDS011;2670;42.720;23.336;2023-05-28T13:53:18;7.97;;;7.17;;
5295;SDS011;2670;42.720;23.336;2023-05-28T13:55:45;10.13;;;6.63;;
5295;SDS011;2670;42.720;23.336;2023-05-28T13:58:11;8.30;;;6.93;;
5295;SDS011;2670;42.720;23.336;2023-05-28T14:00:39;11.87;;;6.40;;
5295;SDS011;2670;42.720;23.336;2023-05-28T14:03:06;9.20;;;6.77;;
5295;SDS011;2670;42.720;23.336;2023-05-28T14:05:33;7.57;;;6.77;;
5295;SDS011;2670;42.720;23.336;2023-05-28T14:08:01;7.13;;;5.90;;
5295;SDS011;2670;42.720;23.336;2023-05-28T14:10:28;6.60;;;5.40;;
5295;SDS011;2670;42.720;23.336;2023-05-28T14:12:55;8.40;;;5.60;;
5295;SDS011;2670;42.720;23.336;2023-05-28T14:15:24;9.40;;;6.00;;
5295;SDS011;2670;42.720;23.336;2023-05-28T14:17:52;9.17;;;6.13;;
5295;SDS011;2670;42.720;23.336;2023-05-28T14:20:18;7.90;;;5.70;;
5295;SDS011;2670;42.720;23.336;2023-05-28T14:22:45;5.80;;;5.20;;
5295;SDS011;2670;42.720;23.336;2023-05-28T14:25:12;7.43;;;5.37;;
5295;SDS011;2670;42.720;23.336;2023-05-28T14:27:39;11.07;;;5.10;;
5295;SDS011;2670;42.720;23.336;2023-05-28T14:30:06;8.87;;;5.50;;
5295;SDS011;2670;42.720;23.336;2023-05-28T14:32:33;7.43;;;5.67;;
5295;SDS011;2670;42.720;23.336;2023-05-28T14:35:01;5.63;;;4.80;;
5295;SDS011;2670;42.720;23.336;2023-05-28T14:37:28;7.23;;;5.27;;
5295;SDS011;2670;42.720;23.336;2023-05-28T14:39:55;6.83;;;5.20;;
5295;SDS011;2670;42.720;23.336;2023-05-28T14:42:21;7.10;;;5.10;;
5295;SDS011;2670;42.720;23.336;2023-05-28T14:44:48;6.97;;;5.67;;
5295;SDS011;2670;42.720;23.336;2023-05-28T14:47:15;6.17;;;5.03;;
5295;SDS011;2670;42.720;23.336;2023-05-28T14:49:41;5.77;;;5.07;;
5295;SDS011;2670;42.720;23.336;2023-05-28T14:52:22;9.67;;;6.60;;
5295;SDS011;2670;42.720;23.336;2023-05-28T14:54:50;7.00;;;5.50;;
5295;SDS011;2670;42.720;23.336;2023-05-28T14:57:17;6.20;;;4.20;;
5295;SDS011;2670;42.720;23.336;2023-05-28T14:59:44;6.73;;;4.73;;